createdAt,value
2023-03-29T00:01:01.010Z,1.95
2023-03-29T00:03:47.393Z,2.60
2023-03-29T00:06:33.154Z,2.78
2023-03-29T00:09:20.049Z,2.08
2023-03-29T00:12:06.163Z,2.10
2023-03-29T00:14:51.786Z,2.05
2023-03-29T00:17:37.461Z,2.33
2023-03-29T00:20:22.915Z,1.55
2023-03-29T00:23:08.347Z,2.03
2023-03-29T00:25:54.165Z,1.70
2023-03-29T00:28:39.931Z,1.65
2023-03-29T00:31:26.518Z,1.67
2023-03-29T00:34:11.910Z,2.15
2023-03-29T00:36:58.477Z,2.28
2023-03-29T00:39:44.737Z,1.75
2023-03-29T00:42:31.040Z,2.28
2023-03-29T00:45:23.466Z,2.25
2023-03-29T00:48:12.426Z,1.55
2023-03-29T00:51:03.935Z,1.75
2023-03-29T00:53:53.851Z,1.80
2023-03-29T00:56:40.813Z,2.10
2023-03-29T00:59:32.910Z,2.00
2023-03-29T01:02:26.176Z,1.77
2023-03-29T01:05:22.668Z,2.28
2023-03-29T01:08:11.818Z,1.63
2023-03-29T01:11:18.033Z,1.83
2023-03-29T01:14:08.318Z,1.70
2023-03-29T01:16:54.451Z,1.80
2023-03-29T01:19:53.877Z,2.00
2023-03-29T01:22:57.882Z,1.20
2023-03-29T01:25:56.081Z,2.15
2023-03-29T01:28:56.053Z,2.83
2023-03-29T01:31:48.112Z,1.95
2023-03-29T01:35:12.207Z,1.85
2023-03-29T01:38:25.631Z,1.98
2023-03-29T01:41:12.302Z,1.58
2023-03-29T01:44:10.135Z,2.35
2023-03-29T01:47:08.782Z,1.45
2023-03-29T01:50:06.746Z,1.45
2023-03-29T01:53:09.402Z,1.77
2023-03-29T01:55:59.200Z,1.30
2023-03-29T01:58:49.037Z,2.15
2023-03-29T02:01:39.035Z,1.83
2023-03-29T02:04:30.019Z,1.92
2023-03-29T02:07:18.263Z,2.20
2023-03-29T02:10:07.295Z,2.25
2023-03-29T02:12:52.984Z,1.77
2023-03-29T02:15:38.728Z,2.45
2023-03-29T02:18:24.808Z,2.22
2023-03-29T02:21:32.350Z,2.30
2023-03-29T02:24:22.048Z,2.25
2023-03-29T02:27:07.735Z,2.15
2023-03-29T02:29:53.565Z,1.50
2023-03-29T02:32:52.529Z,2.25
2023-03-29T02:35:45.815Z,2.15
2023-03-29T02:38:32.839Z,2.03
2023-03-29T02:41:18.740Z,3.08
2023-03-29T02:44:08.269Z,2.00
2023-03-29T02:46:58.724Z,1.77
2023-03-29T02:49:44.273Z,1.80
2023-03-29T02:52:35.900Z,2.00
2023-03-29T02:55:23.853Z,2.58
2023-03-29T02:58:09.554Z,1.60
2023-03-29T03:01:01.559Z,2.03
2023-03-29T03:03:48.119Z,2.50
2023-03-29T03:06:33.883Z,2.78
2023-03-29T03:09:19.804Z,2.38
2023-03-29T03:12:07.646Z,2.20
2023-03-29T03:14:53.267Z,3.13
2023-03-29T03:17:40.238Z,3.03
2023-03-29T03:20:26.658Z,3.25
2023-03-29T03:23:13.735Z,2.33
2023-03-29T03:25:59.706Z,3.42
2023-03-29T03:28:48.440Z,3.25
2023-03-29T03:31:55.142Z,2.85
2023-03-29T03:34:59.925Z,3.92
2023-03-29T03:37:45.624Z,2.78
2023-03-29T03:40:32.347Z,3.08
2023-03-29T03:43:17.697Z,2.90
2023-03-29T03:46:05.793Z,2.13
2023-03-29T03:48:51.568Z,2.60
2023-03-29T03:51:53.165Z,3.28
2023-03-29T03:54:39.033Z,2.33
2023-03-29T03:57:56.381Z,2.67
2023-03-29T04:00:41.937Z,2.55
2023-03-29T04:03:56.521Z,3.30
2023-03-29T04:06:44.219Z,2.00
2023-03-29T04:09:48.932Z,2.45
2023-03-29T04:13:02.465Z,1.90
2023-03-29T04:15:54.344Z,2.33
2023-03-29T04:18:40.152Z,2.60
2023-03-29T04:21:26.309Z,3.08
2023-03-29T04:24:12.709Z,2.65
2023-03-29T04:27:01.396Z,2.70
2023-03-29T04:29:47.003Z,3.47
2023-03-29T04:32:43.377Z,3.72
2023-03-29T04:35:30.040Z,2.38
2023-03-29T04:38:16.861Z,3.58
2023-03-29T04:41:08.916Z,2.75
2023-03-29T04:44:06.963Z,2.97
2023-03-29T04:46:53.090Z,3.70
2023-03-29T04:49:57.411Z,3.42
2023-03-29T04:52:56.634Z,3.17
2023-03-29T04:55:42.334Z,2.88
2023-03-29T04:58:32.799Z,2.88
2023-03-29T05:01:19.728Z,3.65
2023-03-29T05:04:14.286Z,3.08
2023-03-29T05:07:11.826Z,2.50
2023-03-29T05:09:57.380Z,2.65
2023-03-29T05:12:42.854Z,2.40
2023-03-29T05:15:28.626Z,3.20
2023-03-29T05:18:14.508Z,2.72
2023-03-29T05:21:00.197Z,2.85
2023-03-29T05:23:46.530Z,3.35
2023-03-29T05:26:31.832Z,3.65
2023-03-29T05:29:17.237Z,2.03
2023-03-29T05:32:07.288Z,1.95
2023-03-29T05:34:53.391Z,1.90
2023-03-29T05:37:39.895Z,2.00
2023-03-29T05:40:26.341Z,1.35
2023-03-29T05:43:30.998Z,1.77
2023-03-29T05:46:17.429Z,1.95
2023-03-29T05:49:09.253Z,2.10
2023-03-29T05:52:21.158Z,1.52
2023-03-29T05:55:07.977Z,1.75
2023-03-29T05:57:53.830Z,1.60
2023-03-29T06:00:43.907Z,1.67
2023-03-29T06:03:47.538Z,1.75
2023-03-29T06:06:34.057Z,1.58
2023-03-29T06:09:20.058Z,2.28
2023-03-29T06:12:21.084Z,1.83
2023-03-29T06:15:17.856Z,1.10
2023-03-29T06:18:07.081Z,1.70
2023-03-29T06:20:53.930Z,1.08
2023-03-29T06:23:39.541Z,1.65
2023-03-29T06:26:27.794Z,1.52
2023-03-29T06:29:13.389Z,1.02
2023-03-29T06:32:00.378Z,0.45
2023-03-29T06:35:05.105Z,1.15
2023-03-29T06:37:57.173Z,1.30
2023-03-29T06:43:35.319Z,0.68
2023-03-29T06:46:25.871Z,1.20
2023-03-29T06:49:18.532Z,1.30
2023-03-29T06:52:17.350Z,1.35
2023-03-29T06:55:07.672Z,1.00
2023-03-29T06:57:55.026Z,1.02
2023-03-29T07:00:42.163Z,1.35
2023-03-29T07:03:41.312Z,1.00
2023-03-29T07:06:26.810Z,1.20
2023-03-29T07:09:12.941Z,1.02
2023-03-29T07:12:18.832Z,1.30
2023-03-29T07:15:05.032Z,0.85
2023-03-29T07:18:18.406Z,0.70
2023-03-29T07:21:04.726Z,1.02
2023-03-29T07:23:52.282Z,0.60
2023-03-29T07:26:38.150Z,0.30
2023-03-29T07:29:24.655Z,0.45
2023-03-29T07:32:10.511Z,0.50
2023-03-29T07:35:04.496Z,0.93
2023-03-29T07:37:55.010Z,0.82
2023-03-29T07:40:40.809Z,0.75
2023-03-29T07:43:44.677Z,0.90
2023-03-29T07:46:32.202Z,0.75
2023-03-29T07:49:18.429Z,0.68
2023-03-29T07:52:05.385Z,0.75
2023-03-29T07:54:51.159Z,0.60
2023-03-29T07:57:57.566Z,0.98
2023-03-29T08:00:43.813Z,1.58
2023-03-29T08:03:48.248Z,1.10
2023-03-29T08:06:35.256Z,1.70
2023-03-29T08:09:21.365Z,1.00
2023-03-29T08:12:07.644Z,0.80
2023-03-29T08:14:55.558Z,0.88
2023-03-29T08:17:45.853Z,0.93
2023-03-29T08:20:32.785Z,0.82
2023-03-29T08:23:21.283Z,0.43
2023-03-29T08:26:22.848Z,0.50
2023-03-29T08:29:09.467Z,0.75
2023-03-29T08:31:56.457Z,0.70
2023-03-29T08:34:41.772Z,1.23
2023-03-29T08:37:37.502Z,0.65
2023-03-29T08:40:28.166Z,0.35
2023-03-29T08:43:58.073Z,0.82
2023-03-29T08:47:42.464Z,1.10
2023-03-29T08:50:48.145Z,1.00
2023-03-29T08:53:50.055Z,1.00
2023-03-29T08:56:52.073Z,1.65
2023-03-29T08:59:49.594Z,1.45
2023-03-29T09:02:36.258Z,1.27
2023-03-29T09:05:31.246Z,1.65
2023-03-29T09:08:37.330Z,1.17
2023-03-29T09:11:39.032Z,0.70
2023-03-29T09:15:15.534Z,1.30
2023-03-29T09:18:30.355Z,0.68
2023-03-29T09:21:25.289Z,0.68
2023-03-29T09:24:56.524Z,0.85
2023-03-29T09:28:03.791Z,0.63
2023-03-29T09:31:13.180Z,0.40
2023-03-29T09:34:04.964Z,0.38
2023-03-29T09:37:21.573Z,0.70
2023-03-29T09:40:22.768Z,0.60
2023-03-29T09:43:42.150Z,0.40
2023-03-29T09:46:42.605Z,0.40
2023-03-29T09:49:36.471Z,0.50
2023-03-29T09:52:22.128Z,0.47
2023-03-29T09:55:21.280Z,0.52
2023-03-29T09:58:31.798Z,0.70
2023-03-29T10:01:19.094Z,0.98
2023-03-29T10:04:10.008Z,0.60
2023-03-29T10:06:59.993Z,0.60
2023-03-29T10:09:47.030Z,0.50
2023-03-29T10:12:36.710Z,0.73
2023-03-29T10:15:29.701Z,0.80
2023-03-29T10:18:16.893Z,0.35
2023-03-29T10:21:05.512Z,0.35
2023-03-29T10:23:59.408Z,0.50
2023-03-29T10:26:44.953Z,0.47
2023-03-29T10:29:41.204Z,0.60
2023-03-29T10:32:30.550Z,0.75
2023-03-29T10:35:28.252Z,0.80
2023-03-29T10:38:16.570Z,0.47
2023-03-29T10:41:10.378Z,0.60
2023-03-29T10:43:55.836Z,0.50
2023-03-29T10:46:44.156Z,0.73
2023-03-29T10:49:29.622Z,0.82
2023-03-29T10:52:16.551Z,0.30
2023-03-29T10:55:02.707Z,0.40
2023-03-29T10:58:27.517Z,0.50
2023-03-29T11:01:21.780Z,0.52
2023-03-29T11:04:43.921Z,0.90
2023-03-29T11:07:38.524Z,0.93
2023-03-29T11:10:52.757Z,0.60
2023-03-29T11:14:28.124Z,1.10
2023-03-29T11:17:28.721Z,0.85
2023-03-29T11:20:27.106Z,0.73
2023-03-29T11:23:37.595Z,0.80
2023-03-29T11:26:31.881Z,1.23
2023-03-29T11:29:27.378Z,0.90
2023-03-29T11:32:25.772Z,1.30
2023-03-29T11:35:29.842Z,1.10
2023-03-29T11:38:42.749Z,0.77
2023-03-29T11:41:35.043Z,0.95
2023-03-29T11:44:34.248Z,1.17
2023-03-29T11:47:28.049Z,1.20
2023-03-29T11:50:20.012Z,0.73
2023-03-29T11:53:13.345Z,1.20
2023-03-29T11:56:07.351Z,0.82
2023-03-29T11:58:59.573Z,0.60
2023-03-29T12:02:00.019Z,0.60
2023-03-29T12:04:52.089Z,0.98
2023-03-29T12:07:45.685Z,0.60
2023-03-29T12:10:36.508Z,0.80
2023-03-29T12:13:29.217Z,0.93
2023-03-29T12:16:52.774Z,0.85
2023-03-29T12:19:46.574Z,1.30
2023-03-29T12:22:33.765Z,0.90
2023-03-29T12:25:25.779Z,1.30
2023-03-29T12:28:40.349Z,1.25
2023-03-29T12:32:04.277Z,1.10
2023-03-29T12:35:18.395Z,1.60
2023-03-29T12:38:27.636Z,1.33
2023-03-29T12:41:37.948Z,1.48
2023-03-29T12:44:46.917Z,1.27
2023-03-29T12:47:45.573Z,1.60
2023-03-29T12:50:37.599Z,1.92
2023-03-29T12:53:41.069Z,2.08
2023-03-29T12:56:39.942Z,2.67
2023-03-29T12:59:38.983Z,1.50
2023-03-29T13:02:36.281Z,2.35
2023-03-29T13:05:31.402Z,1.85
2023-03-29T13:08:26.312Z,2.53
2023-03-29T13:11:25.388Z,2.47
2023-03-29T13:14:16.940Z,1.98
2023-03-29T13:17:18.432Z,2.97
2023-03-29T13:20:16.777Z,2.25
2023-03-29T13:23:27.230Z,3.60
2023-03-29T13:26:12.703Z,2.67
2023-03-29T13:29:20.060Z,2.67
2023-03-29T13:32:30.517Z,3.28
2023-03-29T13:35:19.015Z,3.63
2023-03-29T13:38:22.438Z,2.70
2023-03-29T13:41:27.819Z,2.40
2023-03-29T13:44:22.465Z,3.20
2023-03-29T13:47:29.381Z,2.60
2023-03-29T13:50:21.172Z,2.95
2023-03-29T13:56:20.366Z,2.80
2023-03-29T13:59:30.228Z,4.07
2023-03-29T14:02:40.622Z,3.72
2023-03-29T14:05:31.565Z,3.35
2023-03-29T14:08:23.789Z,3.67
2023-03-29T14:14:05.138Z,3.20
2023-03-29T14:16:51.369Z,3.47
2023-03-29T14:19:38.065Z,3.55
2023-03-29T14:22:23.601Z,3.15
2023-03-29T14:25:17.204Z,3.88
2023-03-29T14:28:02.414Z,4.60
2023-03-29T14:30:48.126Z,3.50
2023-03-29T14:33:34.772Z,4.20
2023-03-29T14:36:21.335Z,3.38
2023-03-29T14:39:11.597Z,3.35
2023-03-29T14:41:59.688Z,22.02
2023-03-29T14:44:45.301Z,4.38
2023-03-29T14:47:33.090Z,3.47
2023-03-29T14:50:23.890Z,3.47
2023-03-29T14:53:18.356Z,3.63
2023-03-29T14:56:05.406Z,3.28
2023-03-29T14:58:54.865Z,3.80
2023-03-29T15:01:44.542Z,3.35
2023-03-29T15:04:35.151Z,3.15
2023-03-29T15:07:23.752Z,3.72
2023-03-29T15:10:18.734Z,4.07
2023-03-29T15:13:06.794Z,3.63
2023-03-29T15:15:56.412Z,3.50
2023-03-29T15:18:44.174Z,3.38
2023-03-29T15:21:34.200Z,4.03
2023-03-29T15:24:24.181Z,4.72
2023-03-29T15:27:15.149Z,4.05
2023-03-29T15:30:02.890Z,4.05
2023-03-29T15:32:48.333Z,4.32
2023-03-29T15:35:33.672Z,3.92
2023-03-29T15:38:23.388Z,3.53
2023-03-29T15:41:16.196Z,3.55
2023-03-29T15:44:01.780Z,5.00
2023-03-29T15:46:47.335Z,3.75
2023-03-29T15:49:32.991Z,4.55
2023-03-29T15:52:18.433Z,3.80
2023-03-29T15:55:04.877Z,3.88
2023-03-29T15:57:54.360Z,4.47
2023-03-29T16:00:43.600Z,4.38
2023-03-29T16:03:28.949Z,4.53
2023-03-29T16:06:14.354Z,4.35
2023-03-29T16:08:59.834Z,4.45
2023-03-29T16:11:46.486Z,3.75
2023-03-29T16:14:33.593Z,4.03
2023-03-29T16:17:19.195Z,4.05
2023-03-29T16:20:05.586Z,3.03
2023-03-29T16:22:51.422Z,3.40
2023-03-29T16:25:39.965Z,4.43
2023-03-29T16:28:25.614Z,3.67
2023-03-29T16:31:13.622Z,3.45
2023-03-29T16:33:59.101Z,4.60
2023-03-29T16:36:45.413Z,3.80
2023-03-29T16:39:30.731Z,3.20
2023-03-29T16:42:16.141Z,3.05
2023-03-29T16:45:02.317Z,5.07
2023-03-29T16:47:48.074Z,4.05
2023-03-29T16:50:33.581Z,3.53
2023-03-29T16:53:20.048Z,4.10
2023-03-29T16:56:06.270Z,4.03
2023-03-29T16:58:51.892Z,3.35
2023-03-29T17:01:37.444Z,3.65
2023-03-29T17:04:23.289Z,4.10
2023-03-29T17:07:08.968Z,3.38
2023-03-29T17:09:54.264Z,4.40
2023-03-29T17:12:40.112Z,3.92
2023-03-29T17:15:25.492Z,3.90
2023-03-29T17:18:10.924Z,3.10
2023-03-29T17:20:58.478Z,3.83
2023-03-29T17:23:44.347Z,3.72
2023-03-29T17:26:29.700Z,4.15
2023-03-29T17:29:15.012Z,4.18
2023-03-29T17:32:00.436Z,4.10
2023-03-29T17:34:46.426Z,3.08
2023-03-29T17:37:32.164Z,3.47
2023-03-29T17:40:18.587Z,4.30
2023-03-29T17:43:04.366Z,4.07
2023-03-29T17:45:53.239Z,3.72
2023-03-29T17:48:39.254Z,3.60
2023-03-29T17:51:25.379Z,3.90
2023-03-29T17:54:10.802Z,3.47
2023-03-29T17:56:56.125Z,4.35
2023-03-29T17:59:41.523Z,4.03
2023-03-29T18:02:26.814Z,3.20
2023-03-29T18:05:12.612Z,3.65
2023-03-29T18:07:58.181Z,3.60
2023-03-29T18:10:43.541Z,5.15
2023-03-29T18:13:28.920Z,4.88
2023-03-29T18:16:14.479Z,4.72
2023-03-29T18:19:00.138Z,4.28
2023-03-29T18:21:45.304Z,4.53
2023-03-29T18:24:30.820Z,5.20
2023-03-29T18:27:16.960Z,3.83
2023-03-29T18:30:02.513Z,4.35
2023-03-29T18:32:48.245Z,3.38
2023-03-29T18:35:33.624Z,4.40
2023-03-29T18:38:21.382Z,4.13
2023-03-29T18:41:08.752Z,4.07
2023-03-29T18:43:57.321Z,3.75
2023-03-29T18:46:42.918Z,3.88
2023-03-29T18:49:28.412Z,4.13
2023-03-29T18:52:14.422Z,3.65
2023-03-29T18:54:59.938Z,3.50
2023-03-29T18:57:45.621Z,3.03
2023-03-29T19:00:31.008Z,3.88
2023-03-29T19:03:16.766Z,4.25
2023-03-29T19:06:02.636Z,3.35
2023-03-29T19:08:48.288Z,3.22
2023-03-29T19:11:36.017Z,3.00
2023-03-29T19:14:24.219Z,3.33
2023-03-29T19:17:09.437Z,4.95
2023-03-29T19:19:56.433Z,6.03
2023-03-29T19:22:42.156Z,6.45
2023-03-29T19:25:30.658Z,5.88
2023-03-29T19:28:16.416Z,4.40
2023-03-29T19:31:03.022Z,12.90
2023-03-29T19:33:48.632Z,8.50
2023-03-29T19:36:34.225Z,3.92
2023-03-29T19:39:20.814Z,3.35
2023-03-29T19:42:06.190Z,3.95
2023-03-29T19:44:51.669Z,4.43
2023-03-29T19:47:37.246Z,3.95
2023-03-29T19:50:24.232Z,3.70
2023-03-29T19:53:10.917Z,3.90
2023-03-29T19:55:56.672Z,4.63
2023-03-29T19:58:42.409Z,5.75
2023-03-29T20:01:28.188Z,4.70
2023-03-29T20:04:13.970Z,5.05
2023-03-29T20:06:59.680Z,6.35
2023-03-29T20:09:45.458Z,4.25
2023-03-29T20:12:31.062Z,3.22
2023-03-29T20:15:16.442Z,3.60
2023-03-29T20:18:01.783Z,4.82
2023-03-29T20:20:49.817Z,3.72
2023-03-29T20:23:35.677Z,5.07
2023-03-29T20:26:21.622Z,5.18
2023-03-29T20:29:07.364Z,3.92
2023-03-29T20:31:52.624Z,8.63
2023-03-29T20:34:38.216Z,6.40
2023-03-29T20:37:25.916Z,16.42
2023-03-29T20:40:11.677Z,25.38
2023-03-29T20:42:56.954Z,19.67
2023-03-29T20:45:52.089Z,23.90
2023-03-29T20:48:38.428Z,11.90
2023-03-29T20:51:33.367Z,6.32
2023-03-29T20:54:18.951Z,7.32
2023-03-29T20:57:09.797Z,5.38
2023-03-29T20:59:55.203Z,4.28
2023-03-29T21:02:40.623Z,4.75
2023-03-29T21:05:27.346Z,3.70
2023-03-29T21:08:12.690Z,3.75
2023-03-29T21:10:57.982Z,3.72
2023-03-29T21:13:43.997Z,3.63
2023-03-29T21:16:29.438Z,4.38
2023-03-29T21:19:16.732Z,3.45
2023-03-29T21:22:02.704Z,3.55
2023-03-29T21:24:48.203Z,3.78
2023-03-29T21:27:34.281Z,4.78
2023-03-29T21:30:20.053Z,4.22
2023-03-29T21:33:05.748Z,4.15
2023-03-29T21:35:51.518Z,3.05
2023-03-29T21:38:37.194Z,4.05
2023-03-29T21:41:22.590Z,4.00
2023-03-29T21:44:08.007Z,3.90
2023-03-29T21:46:53.832Z,5.60
2023-03-29T21:49:39.726Z,3.95
2023-03-29T21:52:25.094Z,3.05
2023-03-29T21:55:10.800Z,3.65
2023-03-29T21:57:56.260Z,3.20
2023-03-29T22:00:41.638Z,4.57
2023-03-29T22:03:27.273Z,4.50
2023-03-29T22:06:14.072Z,3.85
2023-03-29T22:09:00.855Z,3.20
2023-03-29T22:11:46.717Z,3.25
2023-03-29T22:14:36.414Z,3.15
2023-03-29T22:17:23.045Z,3.33
2023-03-29T22:20:13.474Z,4.00
2023-03-29T22:22:58.826Z,3.60
2023-03-29T22:25:44.051Z,3.70
2023-03-29T22:28:29.279Z,4.57
2023-03-29T22:31:17.273Z,4.22
2023-03-29T22:34:02.841Z,6.25
2023-03-29T22:36:48.387Z,3.25
2023-03-29T22:39:37.468Z,4.43
2023-03-29T22:42:22.815Z,3.40
2023-03-29T22:45:09.065Z,3.72
2023-03-29T22:47:55.038Z,3.13
2023-03-29T22:50:43.021Z,3.03
2023-03-29T22:53:29.018Z,3.63
2023-03-29T22:56:15.959Z,4.00
2023-03-29T22:59:01.300Z,3.63
2023-03-29T23:01:48.316Z,3.03
2023-03-29T23:04:33.856Z,4.32
2023-03-29T23:07:19.631Z,3.55
2023-03-29T23:10:07.619Z,2.95
2023-03-29T23:12:53.735Z,3.72
2023-03-29T23:15:43.503Z,3.50
2023-03-29T23:18:30.420Z,3.78
2023-03-29T23:21:16.692Z,4.72
2023-03-29T23:24:01.958Z,3.80
2023-03-29T23:26:49.078Z,4.80
2023-03-29T23:29:37.866Z,4.72
2023-03-29T23:32:23.155Z,3.88
2023-03-29T23:35:08.961Z,3.22
2023-03-29T23:37:54.703Z,3.85
2023-03-29T23:40:39.941Z,2.78
2023-03-29T23:43:33.023Z,2.65
2023-03-29T23:46:19.045Z,3.28
2023-03-29T23:49:04.815Z,2.72
2023-03-29T23:51:50.640Z,2.83
2023-03-29T23:54:36.580Z,3.35
2023-03-29T23:57:21.890Z,3.50
